Hauptseite
METAR-TAF:

METAR-TAF

Flughäfen :

Ouagadougou, Burkina Faso

Flughafen Ouagadougou

Breite: 12-21N, Länge: 001-31W, Höhe: 316 m

Beobachtung

Neuester Wetterbericht von vor 36 Minuten, um 08:00 UTC
Wind 7 kt aus West
Temperatur 28°C
Luftfeuchtigkeit 74%
Luftdruck 1016 hPa
Sichtweite: 8000 m

METAR: DFFD 240800Z 28007KT 8000 NSC 28/23 Q1016 NOSIG

Zeit: 08:36 (08:36 UTC)

Prognose

Neuester Wetterbericht von vor 3 Stunden und 36 Minuten, um 05:00 UTC
Gültige Prognose vom 24 um 06 UTC bis 25 um 12 UTC
Wind 8 kt aus West/Südwest
Sichtweite 10 km oder mehr
Leicht bewölkt in der Höhe von 2000 ft
Zeitweise
vom 24 um 15 UTC bis 24 um 24 UTC
Sichtweite: 4000 m
Aufgelockert bewölkt in der Höhe von 2000 ft
Aufgelockert bewölkt in der Höhe von 3300 ft, Kumulonimbus.
Gewitter, Regen

TAF: DFFD 240500Z 2406/2512 24008KT 9999 FEW020 TEMPO 2415/2424 4000 TSRA SCT020 SCT033CB

Wetterbeobachtungen und Prognosen von mehr als 4000 Flughäfen (METAR und TAF Bericht).

Die verfügbaren Stationen werden durch gelbe und rote Markierungen auf der Karte dargestellt.

Führen Sie die Maus auf sie, um den Namen der Station zu sehen.

Darauf klicken, um die Beobachtung von Wetterbeobachtungen und Prognosen zu sehen.

Um die Karte zu ändern : klicken Sie auf den grünen Tasten mit einem schwarzen Kreuz Zum Vergrößern, auf den grünen Button mit einem Gedankenstrich zu verkleinern, oder auf die grünen Pfeile für benachbarte Karten.


METAR-TAF: